Terminal Aerodrome Forecast
Issued by NWS

Home | Current Version | Previous Version | Text Only | Print | Product List | Glossary On
Versions: 1 2 3 4 5 6 7 8 9 10 11 12 13 14 15 16 17
000
FTUS41 KGYX 021720
TAFPSM
TAF
KPSM 021720Z 0218/0318 24006KT P6SM SKC
     FM030100 VRB04KT P6SM SCT120 BKN250
     FM031500 VRB03KT P6SM BKN100 OVC200=

USA.gov is the U.S. government's official web portal to all federal, state and local government web resources and services.